sensor_id;sensor_type;location;lat;lon;timestamp;P1;durP1;ratioP1;P2;durP2;ratioP2
73650;SDS011;61944;52.538;6.108;2023-01-29T00:01:50;22.98;;;13.05;;
73650;SDS011;61944;52.538;6.108;2023-01-29T00:04:16;27.27;;;14.15;;
73650;SDS011;61944;52.538;6.108;2023-01-29T00:06:41;24.45;;;13.43;;
73650;SDS011;61944;52.538;6.108;2023-01-29T00:09:07;29.23;;;13.80;;
73650;SDS011;61944;52.538;6.108;2023-01-29T00:11:32;28.83;;;15.75;;
73650;SDS011;61944;52.538;6.108;2023-01-29T00:13:59;24.88;;;13.60;;
73650;SDS011;61944;52.538;6.108;2023-01-29T00:16:24;30.50;;;14.10;;
73650;SDS011;61944;52.538;6.108;2023-01-29T00:18:49;25.42;;;13.40;;
73650;SDS011;61944;52.538;6.108;2023-01-29T00:21:16;22.13;;;14.18;;
73650;SDS011;61944;52.538;6.108;2023-01-29T00:23:43;22.77;;;12.57;;
73650;SDS011;61944;52.538;6.108;2023-01-29T00:26:09;23.05;;;14.43;;
73650;SDS011;61944;52.538;6.108;2023-01-29T00:28:35;27.60;;;14.20;;
73650;SDS011;61944;52.538;6.108;2023-01-29T00:31:08;26.02;;;14.40;;
73650;SDS011;61944;52.538;6.108;2023-01-29T00:33:37;26.65;;;13.77;;
73650;SDS011;61944;52.538;6.108;2023-01-29T00:36:04;25.95;;;13.57;;
73650;SDS011;61944;52.538;6.108;2023-01-29T00:38:31;31.25;;;15.60;;
73650;SDS011;61944;52.538;6.108;2023-01-29T00:40:57;24.08;;;13.30;;
73650;SDS011;61944;52.538;6.108;2023-01-29T00:43:48;25.95;;;14.80;;
73650;SDS011;61944;52.538;6.108;2023-01-29T00:46:32;34.50;;;15.40;;
73650;SDS011;61944;52.538;6.108;2023-01-29T00:48:57;28.25;;;14.63;;
73650;SDS011;61944;52.538;6.108;2023-01-29T00:51:22;30.05;;;15.57;;
73650;SDS011;61944;52.538;6.108;2023-01-29T00:53:48;32.80;;;15.10;;
73650;SDS011;61944;52.538;6.108;2023-01-29T00:56:13;26.65;;;13.57;;
73650;SDS011;61944;52.538;6.108;2023-01-29T00:58:38;27.17;;;14.85;;
73650;SDS011;61944;52.538;6.108;2023-01-29T01:01:04;27.98;;;14.63;;
73650;SDS011;61944;52.538;6.108;2023-01-29T01:03:29;28.25;;;16.63;;
73650;SDS011;61944;52.538;6.108;2023-01-29T01:06:03;31.50;;;16.10;;
73650;SDS011;61944;52.538;6.108;2023-01-29T01:08:29;22.17;;;13.73;;
73650;SDS011;61944;52.538;6.108;2023-01-29T01:11:13;29.70;;;15.35;;
73650;SDS011;61944;52.538;6.108;2023-01-29T01:13:39;32.60;;;15.65;;
73650;SDS011;61944;52.538;6.108;2023-01-29T01:16:14;25.77;;;14.45;;
73650;SDS011;61944;52.538;6.108;2023-01-29T01:18:42;29.23;;;15.25;;
73650;SDS011;61944;52.538;6.108;2023-01-29T01:21:08;27.77;;;14.52;;
73650;SDS011;61944;52.538;6.108;2023-01-29T01:23:33;32.40;;;16.35;;
73650;SDS011;61944;52.538;6.108;2023-01-29T01:25:59;26.35;;;13.65;;
73650;SDS011;61944;52.538;6.108;2023-01-29T01:28:25;30.50;;;14.85;;
73650;SDS011;61944;52.538;6.108;2023-01-29T01:30:52;29.38;;;15.23;;
73650;SDS011;61944;52.538;6.108;2023-01-29T01:33:17;31.17;;;16.75;;
73650;SDS011;61944;52.538;6.108;2023-01-29T01:35:42;27.15;;;14.52;;
73650;SDS011;61944;52.538;6.108;2023-01-29T01:38:08;28.45;;;15.65;;
73650;SDS011;61944;52.538;6.108;2023-01-29T01:40:33;32.03;;;15.40;;
73650;SDS011;61944;52.538;6.108;2023-01-29T01:42:59;32.35;;;17.00;;
73650;SDS011;61944;52.538;6.108;2023-01-29T01:47:51;41.28;;;18.52;;
73650;SDS011;61944;52.538;6.108;2023-01-29T01:50:30;31.75;;;16.38;;
73650;SDS011;61944;52.538;6.108;2023-01-29T01:53:19;33.72;;;15.80;;
73650;SDS011;61944;52.538;6.108;2023-01-29T01:55:51;31.42;;;16.42;;
73650;SDS011;61944;52.538;6.108;2023-01-29T01:58:34;32.53;;;16.25;;
73650;SDS011;61944;52.538;6.108;2023-01-29T02:01:05;34.20;;;16.77;;
73650;SDS011;61944;52.538;6.108;2023-01-29T02:03:36;27.00;;;16.02;;
73650;SDS011;61944;52.538;6.108;2023-01-29T02:06:26;28.88;;;16.63;;
73650;SDS011;61944;52.538;6.108;2023-01-29T02:09:12;36.65;;;17.30;;
73650;SDS011;61944;52.538;6.108;2023-01-29T02:12:00;35.35;;;17.05;;
73650;SDS011;61944;52.538;6.108;2023-01-29T02:14:27;35.17;;;17.38;;
73650;SDS011;61944;52.538;6.108;2023-01-29T02:16:54;32.67;;;18.15;;
73650;SDS011;61944;52.538;6.108;2023-01-29T02:32:40;36.97;;;19.10;;
73650;SDS011;61944;52.538;6.108;2023-01-29T02:35:31;32.05;;;17.15;;
73650;SDS011;61944;52.538;6.108;2023-01-29T02:38:12;34.17;;;18.02;;
73650;SDS011;61944;52.538;6.108;2023-01-29T02:40:49;33.63;;;18.02;;
73650;SDS011;61944;52.538;6.108;2023-01-29T02:46:00;31.73;;;18.08;;
73650;SDS011;61944;52.538;6.108;2023-01-29T02:48:28;29.40;;;17.38;;
73650;SDS011;61944;52.538;6.108;2023-01-29T02:51:05;34.60;;;17.50;;
73650;SDS011;61944;52.538;6.108;2023-01-29T02:53:37;30.45;;;16.65;;
73650;SDS011;61944;52.538;6.108;2023-01-29T02:56:14;33.45;;;16.70;;
73650;SDS011;61944;52.538;6.108;2023-01-29T02:59:18;36.58;;;19.20;;
73650;SDS011;61944;52.538;6.108;2023-01-29T03:01:48;34.28;;;17.70;;
73650;SDS011;61944;52.538;6.108;2023-01-29T03:04:19;35.30;;;17.63;;
73650;SDS011;61944;52.538;6.108;2023-01-29T03:06:50;31.50;;;18.05;;
73650;SDS011;61944;52.538;6.108;2023-01-29T03:09:25;35.53;;;18.83;;
73650;SDS011;61944;52.538;6.108;2023-01-29T03:11:58;36.63;;;21.20;;
73650;SDS011;61944;52.538;6.108;2023-01-29T03:14:42;36.17;;;19.65;;
73650;SDS011;61944;52.538;6.108;2023-01-29T03:17:32;32.63;;;17.77;;
73650;SDS011;61944;52.538;6.108;2023-01-29T03:20:03;37.45;;;18.88;;
73650;SDS011;61944;52.538;6.108;2023-01-29T03:22:33;30.45;;;17.70;;
73650;SDS011;61944;52.538;6.108;2023-01-29T03:25:01;27.90;;;17.50;;
73650;SDS011;61944;52.538;6.108;2023-01-29T03:27:48;36.45;;;17.88;;
73650;SDS011;61944;52.538;6.108;2023-01-29T03:30:37;37.13;;;17.58;;
73650;SDS011;61944;52.538;6.108;2023-01-29T03:33:37;35.42;;;18.67;;
73650;SDS011;61944;52.538;6.108;2023-01-29T03:36:20;37.70;;;18.70;;
73650;SDS011;61944;52.538;6.108;2023-01-29T03:38:50;32.17;;;18.42;;
73650;SDS011;61944;52.538;6.108;2023-01-29T03:41:24;32.85;;;16.73;;
73650;SDS011;61944;52.538;6.108;2023-01-29T03:44:03;36.10;;;17.98;;
73650;SDS011;61944;52.538;6.108;2023-01-29T03:49:23;27.55;;;16.20;;
73650;SDS011;61944;52.538;6.108;2023-01-29T03:52:17;31.52;;;19.63;;
73650;SDS011;61944;52.538;6.108;2023-01-29T04:00:16;30.48;;;17.60;;
73650;SDS011;61944;52.538;6.108;2023-01-29T04:02:50;37.35;;;19.75;;
73650;SDS011;61944;52.538;6.108;2023-01-29T04:05:46;37.30;;;19.70;;
73650;SDS011;61944;52.538;6.108;2023-01-29T04:08:19;34.50;;;18.30;;
73650;SDS011;61944;52.538;6.108;2023-01-29T04:10:49;36.33;;;17.98;;
73650;SDS011;61944;52.538;6.108;2023-01-29T04:13:15;32.22;;;19.08;;
73650;SDS011;61944;52.538;6.108;2023-01-29T04:15:44;36.92;;;18.60;;
73650;SDS011;61944;52.538;6.108;2023-01-29T04:18:13;37.03;;;19.23;;
73650;SDS011;61944;52.538;6.108;2023-01-29T04:20:39;32.70;;;18.23;;
73650;SDS011;61944;52.538;6.108;2023-01-29T04:23:05;36.78;;;17.70;;
73650;SDS011;61944;52.538;6.108;2023-01-29T04:25:43;36.42;;;19.52;;
73650;SDS011;61944;52.538;6.108;2023-01-29T04:33:43;33.90;;;18.52;;
73650;SDS011;61944;52.538;6.108;2023-01-29T04:36:51;35.22;;;19.08;;
73650;SDS011;61944;52.538;6.108;2023-01-29T04:39:24;31.63;;;17.98;;
73650;SDS011;61944;52.538;6.108;2023-01-29T04:52:23;37.38;;;19.52;;
73650;SDS011;61944;52.538;6.108;2023-01-29T04:55:03;38.75;;;21.35;;
73650;SDS011;61944;52.538;6.108;2023-01-29T04:57:42;37.42;;;20.58;;
73650;SDS011;61944;52.538;6.108;2023-01-29T05:00:18;37.55;;;20.05;;
73650;SDS011;61944;52.538;6.108;2023-01-29T05:02:48;32.88;;;20.73;;
73650;SDS011;61944;52.538;6.108;2023-01-29T05:05:14;31.88;;;19.27;;
73650;SDS011;61944;52.538;6.108;2023-01-29T05:07:43;40.20;;;20.75;;
73650;SDS011;61944;52.538;6.108;2023-01-29T05:10:10;38.90;;;20.77;;
73650;SDS011;61944;52.538;6.108;2023-01-29T05:12:38;35.50;;;20.65;;
73650;SDS011;61944;52.538;6.108;2023-01-29T05:15:08;41.38;;;21.05;;
73650;SDS011;61944;52.538;6.108;2023-01-29T05:17:38;34.33;;;19.63;;
73650;SDS011;61944;52.538;6.108;2023-01-29T05:20:04;40.58;;;20.80;;
73650;SDS011;61944;52.538;6.108;2023-01-29T05:22:31;41.03;;;22.20;;
73650;SDS011;61944;52.538;6.108;2023-01-29T05:24:56;40.00;;;21.70;;
73650;SDS011;61944;52.538;6.108;2023-01-29T05:27:24;38.47;;;21.13;;
73650;SDS011;61944;52.538;6.108;2023-01-29T05:30:15;35.97;;;20.20;;
73650;SDS011;61944;52.538;6.108;2023-01-29T05:32:40;41.50;;;21.42;;
73650;SDS011;61944;52.538;6.108;2023-01-29T05:35:05;38.53;;;20.55;;
73650;SDS011;61944;52.538;6.108;2023-01-29T05:37:31;39.58;;;20.73;;
73650;SDS011;61944;52.538;6.108;2023-01-29T05:39:56;34.58;;;21.00;;
73650;SDS011;61944;52.538;6.108;2023-01-29T05:42:22;39.95;;;21.52;;
73650;SDS011;61944;52.538;6.108;2023-01-29T05:44:48;36.28;;;20.60;;
73650;SDS011;61944;52.538;6.108;2023-01-29T05:47:13;42.10;;;20.60;;
73650;SDS011;61944;52.538;6.108;2023-01-29T05:49:42;36.67;;;19.92;;
73650;SDS011;61944;52.538;6.108;2023-01-29T05:52:07;39.67;;;20.75;;
73650;SDS011;61944;52.538;6.108;2023-01-29T05:54:33;40.08;;;22.42;;
73650;SDS011;61944;52.538;6.108;2023-01-29T05:56:58;35.97;;;20.60;;
73650;SDS011;61944;52.538;6.108;2023-01-29T05:59:23;41.35;;;21.38;;
73650;SDS011;61944;52.538;6.108;2023-01-29T06:01:49;50.63;;;23.13;;
73650;SDS011;61944;52.538;6.108;2023-01-29T06:04:14;42.47;;;21.55;;
73650;SDS011;61944;52.538;6.108;2023-01-29T06:06:39;38.42;;;21.48;;
73650;SDS011;61944;52.538;6.108;2023-01-29T06:09:05;42.45;;;22.48;;
73650;SDS011;61944;52.538;6.108;2023-01-29T06:11:30;41.90;;;23.50;;
73650;SDS011;61944;52.538;6.108;2023-01-29T06:13:56;42.15;;;25.17;;
73650;SDS011;61944;52.538;6.108;2023-01-29T06:16:21;38.53;;;21.58;;
73650;SDS011;61944;52.538;6.108;2023-01-29T06:18:47;44.33;;;23.23;;
73650;SDS011;61944;52.538;6.108;2023-01-29T06:21:12;46.35;;;22.70;;
73650;SDS011;61944;52.538;6.108;2023-01-29T06:23:38;46.75;;;22.42;;
73650;SDS011;61944;52.538;6.108;2023-01-29T06:26:05;42.75;;;20.95;;
73650;SDS011;61944;52.538;6.108;2023-01-29T06:28:34;39.22;;;20.80;;
73650;SDS011;61944;52.538;6.108;2023-01-29T06:31:03;37.15;;;20.30;;
73650;SDS011;61944;52.538;6.108;2023-01-29T06:33:30;43.33;;;23.17;;
73650;SDS011;61944;52.538;6.108;2023-01-29T06:35:59;41.67;;;24.77;;
73650;SDS011;61944;52.538;6.108;2023-01-29T06:38:26;42.33;;;23.15;;
73650;SDS011;61944;52.538;6.108;2023-01-29T06:40:52;43.58;;;23.48;;
73650;SDS011;61944;52.538;6.108;2023-01-29T06:43:18;47.33;;;22.60;;
73650;SDS011;61944;52.538;6.108;2023-01-29T06:45:45;38.30;;;20.88;;
73650;SDS011;61944;52.538;6.108;2023-01-29T06:48:15;41.72;;;21.45;;
73650;SDS011;61944;52.538;6.108;2023-01-29T06:50:40;55.38;;;26.70;;
73650;SDS011;61944;52.538;6.108;2023-01-29T06:53:06;47.55;;;23.58;;
73650;SDS011;61944;52.538;6.108;2023-01-29T06:55:31;44.50;;;23.25;;
73650;SDS011;61944;52.538;6.108;2023-01-29T06:57:56;47.70;;;25.00;;
73650;SDS011;61944;52.538;6.108;2023-01-29T07:00:22;46.78;;;24.77;;
73650;SDS011;61944;52.538;6.108;2023-01-29T07:02:48;47.40;;;23.48;;
73650;SDS011;61944;52.538;6.108;2023-01-29T07:05:13;38.63;;;22.15;;
73650;SDS011;61944;52.538;6.108;2023-01-29T07:07:39;50.70;;;24.65;;
73650;SDS011;61944;52.538;6.108;2023-01-29T07:10:04;44.35;;;22.65;;
73650;SDS011;61944;52.538;6.108;2023-01-29T07:12:30;46.38;;;23.63;;
73650;SDS011;61944;52.538;6.108;2023-01-29T07:14:55;44.28;;;21.77;;
73650;SDS011;61944;52.538;6.108;2023-01-29T07:17:20;45.25;;;22.70;;
73650;SDS011;61944;52.538;6.108;2023-01-29T07:19:46;51.55;;;24.30;;
73650;SDS011;61944;52.538;6.108;2023-01-29T07:22:11;48.03;;;23.55;;
73650;SDS011;61944;52.538;6.108;2023-01-29T07:24:36;44.97;;;22.73;;
73650;SDS011;61944;52.538;6.108;2023-01-29T07:27:02;51.25;;;24.95;;
73650;SDS011;61944;52.538;6.108;2023-01-29T07:29:27;54.20;;;21.90;;
73650;SDS011;61944;52.538;6.108;2023-01-29T07:31:52;44.67;;;22.65;;
73650;SDS011;61944;52.538;6.108;2023-01-29T07:34:18;41.40;;;21.92;;
73650;SDS011;61944;52.538;6.108;2023-01-29T07:36:43;46.40;;;22.20;;
73650;SDS011;61944;52.538;6.108;2023-01-29T07:39:09;49.97;;;23.58;;
73650;SDS011;61944;52.538;6.108;2023-01-29T07:41:34;43.28;;;22.05;;
73650;SDS011;61944;52.538;6.108;2023-01-29T07:43:59;44.78;;;24.13;;
73650;SDS011;61944;52.538;6.108;2023-01-29T07:46:25;45.53;;;25.00;;
73650;SDS011;61944;52.538;6.108;2023-01-29T07:48:50;38.88;;;22.50;;
73650;SDS011;61944;52.538;6.108;2023-01-29T07:51:15;51.03;;;22.45;;
73650;SDS011;61944;52.538;6.108;2023-01-29T07:53:42;43.47;;;22.02;;
73650;SDS011;61944;52.538;6.108;2023-01-29T07:56:09;43.42;;;22.15;;
73650;SDS011;61944;52.538;6.108;2023-01-29T07:58:34;46.42;;;24.70;;
73650;SDS011;61944;52.538;6.108;2023-01-29T08:01:03;43.30;;;23.42;;
73650;SDS011;61944;52.538;6.108;2023-01-29T08:03:29;46.13;;;24.27;;
73650;SDS011;61944;52.538;6.108;2023-01-29T08:05:56;50.10;;;24.20;;
73650;SDS011;61944;52.538;6.108;2023-01-29T08:08:22;46.67;;;23.67;;
73650;SDS011;61944;52.538;6.108;2023-01-29T08:10:47;43.38;;;23.42;;
73650;SDS011;61944;52.538;6.108;2023-01-29T08:13:12;48.72;;;23.95;;
73650;SDS011;61944;52.538;6.108;2023-01-29T08:15:41;44.13;;;23.50;;
73650;SDS011;61944;52.538;6.108;2023-01-29T08:18:08;46.70;;;24.88;;
73650;SDS011;61944;52.538;6.108;2023-01-29T08:20:34;41.83;;;23.98;;
73650;SDS011;61944;52.538;6.108;2023-01-29T08:23:00;43.88;;;23.35;;
73650;SDS011;61944;52.538;6.108;2023-01-29T08:25:26;45.72;;;23.73;;
73650;SDS011;61944;52.538;6.108;2023-01-29T08:27:53;39.42;;;21.45;;
73650;SDS011;61944;52.538;6.108;2023-01-29T08:30:21;43.35;;;22.90;;
73650;SDS011;61944;52.538;6.108;2023-01-29T08:35:40;46.20;;;22.75;;
73650;SDS011;61944;52.538;6.108;2023-01-29T08:41:04;40.80;;;24.48;;
73650;SDS011;61944;52.538;6.108;2023-01-29T08:43:30;46.50;;;23.70;;
73650;SDS011;61944;52.538;6.108;2023-01-29T08:45:55;42.45;;;22.20;;
73650;SDS011;61944;52.538;6.108;2023-01-29T08:48:21;48.83;;;24.67;;
73650;SDS011;61944;52.538;6.108;2023-01-29T08:50:46;43.30;;;24.02;;
73650;SDS011;61944;52.538;6.108;2023-01-29T08:53:12;41.80;;;21.20;;
73650;SDS011;61944;52.538;6.108;2023-01-29T08:55:38;41.78;;;22.95;;
73650;SDS011;61944;52.538;6.108;2023-01-29T08:58:05;43.45;;;22.40;;
73650;SDS011;61944;52.538;6.108;2023-01-29T09:00:32;40.65;;;21.98;;
73650;SDS011;61944;52.538;6.108;2023-01-29T09:03:11;44.15;;;22.92;;
73650;SDS011;61944;52.538;6.108;2023-01-29T09:05:42;42.67;;;22.48;;
73650;SDS011;61944;52.538;6.108;2023-01-29T09:08:24;43.97;;;24.95;;
73650;SDS011;61944;52.538;6.108;2023-01-29T09:11:00;43.28;;;24.75;;
73650;SDS011;61944;52.538;6.108;2023-01-29T09:13:31;38.83;;;21.20;;
73650;SDS011;61944;52.538;6.108;2023-01-29T09:16:06;37.13;;;21.08;;
73650;SDS011;61944;52.538;6.108;2023-01-29T09:18:32;40.08;;;22.10;;
73650;SDS011;61944;52.538;6.108;2023-01-29T09:20:57;40.63;;;22.80;;
73650;SDS011;61944;52.538;6.108;2023-01-29T09:23:23;44.25;;;23.17;;
73650;SDS011;61944;52.538;6.108;2023-01-29T09:25:49;44.47;;;23.33;;
73650;SDS011;61944;52.538;6.108;2023-01-29T09:28:14;44.28;;;23.05;;
73650;SDS011;61944;52.538;6.108;2023-01-29T09:30:41;46.05;;;23.40;;
73650;SDS011;61944;52.538;6.108;2023-01-29T09:33:10;43.15;;;23.25;;
73650;SDS011;61944;52.538;6.108;2023-01-29T09:35:36;40.67;;;22.42;;
73650;SDS011;61944;52.538;6.108;2023-01-29T09:38:01;40.72;;;22.45;;
73650;SDS011;61944;52.538;6.108;2023-01-29T09:46:04;51.28;;;24.33;;
73650;SDS011;61944;52.538;6.108;2023-01-29T09:48:39;44.75;;;21.92;;
73650;SDS011;61944;52.538;6.108;2023-01-29T09:51:06;44.05;;;22.90;;
73650;SDS011;61944;52.538;6.108;2023-01-29T09:54:20;48.38;;;24.05;;
73650;SDS011;61944;52.538;6.108;2023-01-29T09:56:54;39.08;;;20.98;;
73650;SDS011;61944;52.538;6.108;2023-01-29T09:59:21;40.92;;;21.58;;
73650;SDS011;61944;52.538;6.108;2023-01-29T10:02:38;41.65;;;23.52;;
73650;SDS011;61944;52.538;6.108;2023-01-29T10:05:09;43.67;;;22.42;;
73650;SDS011;61944;52.538;6.108;2023-01-29T10:08:19;41.88;;;20.83;;
73650;SDS011;61944;52.538;6.108;2023-01-29T10:11:03;44.53;;;22.15;;
73650;SDS011;61944;52.538;6.108;2023-01-29T10:19:55;42.25;;;23.88;;
73650;SDS011;61944;52.538;6.108;2023-01-29T10:26:00;40.00;;;22.63;;
73650;SDS011;61944;52.538;6.108;2023-01-29T10:28:49;42.78;;;23.20;;
73650;SDS011;61944;52.538;6.108;2023-01-29T10:31:34;48.58;;;21.75;;
73650;SDS011;61944;52.538;6.108;2023-01-29T10:34:35;43.88;;;23.15;;
73650;SDS011;61944;52.538;6.108;2023-01-29T10:37:16;44.40;;;23.00;;
73650;SDS011;61944;52.538;6.108;2023-01-29T10:39:45;45.13;;;24.88;;
73650;SDS011;61944;52.538;6.108;2023-01-29T10:42:42;43.22;;;23.60;;
73650;SDS011;61944;52.538;6.108;2023-01-29T10:45:28;40.97;;;23.17;;
73650;SDS011;61944;52.538;6.108;2023-01-29T10:54:10;41.80;;;22.50;;
73650;SDS011;61944;52.538;6.108;2023-01-29T11:02:34;46.65;;;25.50;;
73650;SDS011;61944;52.538;6.108;2023-01-29T11:05:00;49.85;;;24.17;;
73650;SDS011;61944;52.538;6.108;2023-01-29T11:07:29;48.33;;;23.08;;
73650;SDS011;61944;52.538;6.108;2023-01-29T11:10:12;44.75;;;23.58;;
73650;SDS011;61944;52.538;6.108;2023-01-29T11:12:42;52.00;;;27.13;;
73650;SDS011;61944;52.538;6.108;2023-01-29T11:15:18;44.88;;;23.27;;
73650;SDS011;61944;52.538;6.108;2023-01-29T11:18:04;44.83;;;23.38;;
73650;SDS011;61944;52.538;6.108;2023-01-29T11:20:40;44.45;;;24.17;;
73650;SDS011;61944;52.538;6.108;2023-01-29T11:25:52;44.75;;;21.55;;
73650;SDS011;61944;52.538;6.108;2023-01-29T11:31:21;43.55;;;24.15;;
73650;SDS011;61944;52.538;6.108;2023-01-29T11:33:51;45.97;;;24.02;;
73650;SDS011;61944;52.538;6.108;2023-01-29T11:39:03;42.38;;;23.50;;
73650;SDS011;61944;52.538;6.108;2023-01-29T11:41:55;37.30;;;20.75;;
73650;SDS011;61944;52.538;6.108;2023-01-29T11:49:48;43.03;;;22.77;;
73650;SDS011;61944;52.538;6.108;2023-01-29T11:52:18;46.13;;;24.23;;
73650;SDS011;61944;52.538;6.108;2023-01-29T11:54:53;42.40;;;22.65;;
73650;SDS011;61944;52.538;6.108;2023-01-29T12:02:58;47.10;;;24.33;;
73650;SDS011;61944;52.538;6.108;2023-01-29T12:05:54;37.72;;;20.83;;
73650;SDS011;61944;52.538;6.108;2023-01-29T12:08:22;50.55;;;25.73;;
73650;SDS011;61944;52.538;6.108;2023-01-29T12:10:49;45.05;;;24.55;;
73650;SDS011;61944;52.538;6.108;2023-01-29T12:13:36;48.15;;;25.27;;
73650;SDS011;61944;52.538;6.108;2023-01-29T12:16:18;52.80;;;25.17;;
73650;SDS011;61944;52.538;6.108;2023-01-29T12:21:42;49.17;;;25.40;;
73650;SDS011;61944;52.538;6.108;2023-01-29T12:26:51;44.20;;;23.35;;
73650;SDS011;61944;52.538;6.108;2023-01-29T12:32:48;46.72;;;22.55;;
73650;SDS011;61944;52.538;6.108;2023-01-29T12:38:01;41.63;;;22.35;;
73650;SDS011;61944;52.538;6.108;2023-01-29T12:40:57;47.33;;;23.13;;
73650;SDS011;61944;52.538;6.108;2023-01-29T12:45:59;48.08;;;25.83;;
73650;SDS011;61944;52.538;6.108;2023-01-29T12:48:30;52.38;;;25.73;;
73650;SDS011;61944;52.538;6.108;2023-01-29T12:51:03;50.90;;;24.73;;
73650;SDS011;61944;52.538;6.108;2023-01-29T12:53:44;53.83;;;26.10;;
73650;SDS011;61944;52.538;6.108;2023-01-29T12:56:15;52.30;;;25.52;;
73650;SDS011;61944;52.538;6.108;2023-01-29T12:58:51;46.42;;;23.35;;
73650;SDS011;61944;52.538;6.108;2023-01-29T13:01:22;46.85;;;23.75;;
73650;SDS011;61944;52.538;6.108;2023-01-29T13:04:14;57.00;;;26.02;;
73650;SDS011;61944;52.538;6.108;2023-01-29T13:06:53;47.35;;;23.40;;
73650;SDS011;61944;52.538;6.108;2023-01-29T13:09:25;47.70;;;25.17;;
73650;SDS011;61944;52.538;6.108;2023-01-29T13:12:04;49.17;;;25.35;;
73650;SDS011;61944;52.538;6.108;2023-01-29T13:17:32;50.35;;;24.70;;
73650;SDS011;61944;52.538;6.108;2023-01-29T13:19:59;51.03;;;25.30;;
73650;SDS011;61944;52.538;6.108;2023-01-29T13:22:35;57.92;;;25.52;;
73650;SDS011;61944;52.538;6.108;2023-01-29T13:25:03;54.00;;;27.27;;
73650;SDS011;61944;52.538;6.108;2023-01-29T13:27:29;44.70;;;25.08;;
73650;SDS011;61944;52.538;6.108;2023-01-29T13:29:59;56.50;;;26.52;;
73650;SDS011;61944;52.538;6.108;2023-01-29T13:32:26;52.85;;;26.77;;
73650;SDS011;61944;52.538;6.108;2023-01-29T13:34:54;51.05;;;26.25;;
73650;SDS011;61944;52.538;6.108;2023-01-29T13:40:23;53.72;;;26.52;;
73650;SDS011;61944;52.538;6.108;2023-01-29T13:42:51;56.13;;;27.30;;
73650;SDS011;61944;52.538;6.108;2023-01-29T13:45:35;56.33;;;29.23;;
73650;SDS011;61944;52.538;6.108;2023-01-29T13:48:17;53.03;;;26.95;;
73650;SDS011;61944;52.538;6.108;2023-01-29T13:50:47;57.17;;;28.25;;
73650;SDS011;61944;52.538;6.108;2023-01-29T13:53:50;57.53;;;30.50;;
73650;SDS011;61944;52.538;6.108;2023-01-29T13:56:29;59.40;;;28.13;;
73650;SDS011;61944;52.538;6.108;2023-01-29T13:59:19;56.95;;;26.48;;
73650;SDS011;61944;52.538;6.108;2023-01-29T14:06:46;58.15;;;30.05;;
73650;SDS011;61944;52.538;6.108;2023-01-29T14:17:16;60.08;;;29.30;;
73650;SDS011;61944;52.538;6.108;2023-01-29T14:19:54;57.13;;;29.48;;
73650;SDS011;61944;52.538;6.108;2023-01-29T14:22:27;56.53;;;27.45;;
73650;SDS011;61944;52.538;6.108;2023-01-29T14:24:55;56.40;;;30.85;;
73650;SDS011;61944;52.538;6.108;2023-01-29T14:27:27;62.92;;;30.55;;
73650;SDS011;61944;52.538;6.108;2023-01-29T14:30:00;60.92;;;30.42;;
73650;SDS011;61944;52.538;6.108;2023-01-29T14:32:31;60.22;;;30.88;;
73650;SDS011;61944;52.538;6.108;2023-01-29T14:37:41;61.30;;;28.98;;
73650;SDS011;61944;52.538;6.108;2023-01-29T14:42:36;58.22;;;29.55;;
73650;SDS011;61944;52.538;6.108;2023-01-29T14:45:27;61.17;;;28.67;;
73650;SDS011;61944;52.538;6.108;2023-01-29T14:58:41;64.03;;;30.38;;
73650;SDS011;61944;52.538;6.108;2023-01-29T15:01:14;59.83;;;30.30;;
73650;SDS011;61944;52.538;6.108;2023-01-29T15:03:43;60.20;;;31.13;;
73650;SDS011;61944;52.538;6.108;2023-01-29T15:06:21;61.13;;;32.67;;
73650;SDS011;61944;52.538;6.108;2023-01-29T15:11:47;60.83;;;31.58;;
73650;SDS011;61944;52.538;6.108;2023-01-29T15:14:46;53.40;;;27.70;;
73650;SDS011;61944;52.538;6.108;2023-01-29T15:17:16;64.20;;;30.17;;
73650;SDS011;61944;52.538;6.108;2023-01-29T15:19:46;65.25;;;30.05;;
73650;SDS011;61944;52.538;6.108;2023-01-29T15:22:14;64.85;;;31.40;;
73650;SDS011;61944;52.538;6.108;2023-01-29T15:24:42;63.70;;;30.92;;
73650;SDS011;61944;52.538;6.108;2023-01-29T15:27:10;66.85;;;31.20;;
73650;SDS011;61944;52.538;6.108;2023-01-29T15:29:38;60.05;;;30.25;;
73650;SDS011;61944;52.538;6.108;2023-01-29T15:32:05;59.55;;;30.33;;
73650;SDS011;61944;52.538;6.108;2023-01-29T15:34:32;67.85;;;35.95;;
73650;SDS011;61944;52.538;6.108;2023-01-29T15:36:58;58.22;;;31.08;;
73650;SDS011;61944;52.538;6.108;2023-01-29T15:39:23;52.55;;;28.23;;
73650;SDS011;61944;52.538;6.108;2023-01-29T15:41:49;56.08;;;28.42;;
73650;SDS011;61944;52.538;6.108;2023-01-29T15:44:28;63.45;;;31.80;;
73650;SDS011;61944;52.538;6.108;2023-01-29T15:46:54;56.80;;;27.42;;
73650;SDS011;61944;52.538;6.108;2023-01-29T15:49:24;61.42;;;31.05;;
73650;SDS011;61944;52.538;6.108;2023-01-29T15:51:59;57.72;;;29.63;;
73650;SDS011;61944;52.538;6.108;2023-01-29T15:54:30;52.05;;;27.13;;
73650;SDS011;61944;52.538;6.108;2023-01-29T15:56:57;55.00;;;27.98;;
73650;SDS011;61944;52.538;6.108;2023-01-29T15:59:24;52.30;;;28.77;;
73650;SDS011;61944;52.538;6.108;2023-01-29T16:01:53;56.00;;;30.20;;
73650;SDS011;61944;52.538;6.108;2023-01-29T16:04:23;59.67;;;30.45;;
73650;SDS011;61944;52.538;6.108;2023-01-29T16:06:52;57.15;;;29.25;;
73650;SDS011;61944;52.538;6.108;2023-01-29T16:09:20;52.50;;;27.27;;
73650;SDS011;61944;52.538;6.108;2023-01-29T16:11:50;52.17;;;29.13;;
73650;SDS011;61944;52.538;6.108;2023-01-29T16:14:18;53.35;;;27.88;;
73650;SDS011;61944;52.538;6.108;2023-01-29T16:16:51;47.28;;;26.85;;
73650;SDS011;61944;52.538;6.108;2023-01-29T16:19:22;52.10;;;28.55;;
73650;SDS011;61944;52.538;6.108;2023-01-29T16:21:53;54.88;;;28.20;;
73650;SDS011;61944;52.538;6.108;2023-01-29T16:24:23;56.47;;;28.70;;
73650;SDS011;61944;52.538;6.108;2023-01-29T16:26:50;54.08;;;28.17;;
73650;SDS011;61944;52.538;6.108;2023-01-29T16:29:21;54.72;;;28.52;;
73650;SDS011;61944;52.538;6.108;2023-01-29T16:31:52;58.45;;;28.75;;
73650;SDS011;61944;52.538;6.108;2023-01-29T16:34:25;52.83;;;27.52;;
73650;SDS011;61944;52.538;6.108;2023-01-29T16:36:54;53.30;;;28.17;;
73650;SDS011;61944;52.538;6.108;2023-01-29T16:39:22;56.20;;;28.02;;
73650;SDS011;61944;52.538;6.108;2023-01-29T16:44:36;54.55;;;27.85;;
73650;SDS011;61944;52.538;6.108;2023-01-29T16:56:06;66.97;;;33.42;;
73650;SDS011;61944;52.538;6.108;2023-01-29T16:58:32;63.25;;;31.50;;
73650;SDS011;61944;52.538;6.108;2023-01-29T17:01:00;68.15;;;30.65;;
73650;SDS011;61944;52.538;6.108;2023-01-29T17:03:32;58.38;;;28.45;;
73650;SDS011;61944;52.538;6.108;2023-01-29T17:05:59;60.13;;;28.55;;
73650;SDS011;61944;52.538;6.108;2023-01-29T17:08:33;61.78;;;31.02;;
73650;SDS011;61944;52.538;6.108;2023-01-29T17:10:59;59.17;;;29.55;;
73650;SDS011;61944;52.538;6.108;2023-01-29T17:13:27;58.47;;;27.95;;
73650;SDS011;61944;52.538;6.108;2023-01-29T17:16:00;69.15;;;29.92;;
73650;SDS011;61944;52.538;6.108;2023-01-29T17:18:27;56.63;;;27.55;;
73650;SDS011;61944;52.538;6.108;2023-01-29T17:20:52;61.05;;;30.52;;
73650;SDS011;61944;52.538;6.108;2023-01-29T17:23:18;59.80;;;28.50;;
73650;SDS011;61944;52.538;6.108;2023-01-29T17:25:43;54.95;;;28.33;;